sensor_id;sensor_type;location;lat;lon;timestamp;pressure;altitude;pressure_sealevel;temperature
65569;BMP180;52211;50.154;8.682;2022-09-29T00:01:15;98482.00;;;14.80
65569;BMP180;52211;50.154;8.682;2022-09-29T00:03:42;98482.00;;;14.80
65569;BMP180;52211;50.154;8.682;2022-09-29T00:06:17;98484.00;;;14.80
65569;BMP180;52211;50.154;8.682;2022-09-29T00:08:46;98489.00;;;14.80
65569;BMP180;52211;50.154;8.682;2022-09-29T00:11:20;98489.00;;;14.80
65569;BMP180;52211;50.154;8.682;2022-09-29T00:13:47;98490.00;;;14.70
65569;BMP180;52211;50.154;8.682;2022-09-29T00:16:14;98487.00;;;14.70
65569;BMP180;52211;50.154;8.682;2022-09-29T00:18:46;98486.00;;;14.70
65569;BMP180;52211;50.154;8.682;2022-09-29T00:21:22;98493.00;;;14.70
65569;BMP180;52211;50.154;8.682;2022-09-29T00:23:49;98487.00;;;14.70
65569;BMP180;52211;50.154;8.682;2022-09-29T00:26:24;98483.00;;;14.60
65569;BMP180;52211;50.154;8.682;2022-09-29T00:28:54;98483.00;;;14.60
65569;BMP180;52211;50.154;8.682;2022-09-29T00:31:27;98487.00;;;14.60
65569;BMP180;52211;50.154;8.682;2022-09-29T00:33:55;98489.00;;;14.60
65569;BMP180;52211;50.154;8.682;2022-09-29T00:36:24;98493.00;;;14.60
65569;BMP180;52211;50.154;8.682;2022-09-29T00:38:52;98487.00;;;14.50
65569;BMP180;52211;50.154;8.682;2022-09-29T00:41:33;98482.00;;;14.50
65569;BMP180;52211;50.154;8.682;2022-09-29T00:46:53;98487.00;;;14.50
65569;BMP180;52211;50.154;8.682;2022-09-29T00:52:36;98481.00;;;14.40
65569;BMP180;52211;50.154;8.682;2022-09-29T00:55:37;98489.00;;;14.40
65569;BMP180;52211;50.154;8.682;2022-09-29T00:58:20;98478.00;;;14.40
65569;BMP180;52211;50.154;8.682;2022-09-29T01:00:51;98476.00;;;14.40
65569;BMP180;52211;50.154;8.682;2022-09-29T01:03:30;98480.00;;;14.40
65569;BMP180;52211;50.154;8.682;2022-09-29T01:06:12;98476.00;;;14.30
65569;BMP180;52211;50.154;8.682;2022-09-29T01:11:28;98484.00;;;14.30
65569;BMP180;52211;50.154;8.682;2022-09-29T01:13:59;98478.00;;;14.30
65569;BMP180;52211;50.154;8.682;2022-09-29T01:16:34;98479.00;;;14.30
65569;BMP180;52211;50.154;8.682;2022-09-29T01:19:13;98468.00;;;14.20
65569;BMP180;52211;50.154;8.682;2022-09-29T01:40:08;98467.00;;;14.10
65569;BMP180;52211;50.154;8.682;2022-09-29T01:42:56;98467.00;;;14.10
65569;BMP180;52211;50.154;8.682;2022-09-29T01:45:37;98465.00;;;14.10
65569;BMP180;52211;50.154;8.682;2022-09-29T01:48:18;98475.00;;;14.10
65569;BMP180;52211;50.154;8.682;2022-09-29T01:50:52;98473.00;;;14.10
65569;BMP180;52211;50.154;8.682;2022-09-29T01:53:34;98473.00;;;14.00
65569;BMP180;52211;50.154;8.682;2022-09-29T01:56:11;98473.00;;;14.00
65569;BMP180;52211;50.154;8.682;2022-09-29T01:58:53;98483.00;;;14.00
65569;BMP180;52211;50.154;8.682;2022-09-29T02:01:34;98477.00;;;14.00
65569;BMP180;52211;50.154;8.682;2022-09-29T02:04:23;98482.00;;;13.90
65569;BMP180;52211;50.154;8.682;2022-09-29T02:07:05;98476.00;;;13.90
65569;BMP180;52211;50.154;8.682;2022-09-29T02:09:40;98482.00;;;13.90
65569;BMP180;52211;50.154;8.682;2022-09-29T02:12:12;98477.00;;;13.80
65569;BMP180;52211;50.154;8.682;2022-09-29T02:14:48;98491.00;;;13.80
65569;BMP180;52211;50.154;8.682;2022-09-29T02:17:29;98480.00;;;13.70
65569;BMP180;52211;50.154;8.682;2022-09-29T02:19:59;98481.00;;;13.70
65569;BMP180;52211;50.154;8.682;2022-09-29T02:22:29;98483.00;;;13.70
65569;BMP180;52211;50.154;8.682;2022-09-29T02:24:58;98488.00;;;13.70
65569;BMP180;52211;50.154;8.682;2022-09-29T02:27:26;98487.00;;;13.70
65569;BMP180;52211;50.154;8.682;2022-09-29T02:29:59;98496.00;;;13.60
65569;BMP180;52211;50.154;8.682;2022-09-29T02:32:31;98500.00;;;13.60
65569;BMP180;52211;50.154;8.682;2022-09-29T02:35:06;98489.00;;;13.60
65569;BMP180;52211;50.154;8.682;2022-09-29T02:37:42;98487.00;;;13.60
65569;BMP180;52211;50.154;8.682;2022-09-29T02:40:29;98485.00;;;13.50
65569;BMP180;52211;50.154;8.682;2022-09-29T02:57:53;98505.00;;;13.40
65569;BMP180;52211;50.154;8.682;2022-09-29T03:00:24;98508.00;;;13.40
65569;BMP180;52211;50.154;8.682;2022-09-29T03:02:54;98510.00;;;13.40
65569;BMP180;52211;50.154;8.682;2022-09-29T03:05:22;98512.00;;;13.40
65569;BMP180;52211;50.154;8.682;2022-09-29T03:07:54;98509.00;;;13.40
65569;BMP180;52211;50.154;8.682;2022-09-29T03:10:20;98512.00;;;13.40
65569;BMP180;52211;50.154;8.682;2022-09-29T03:12:49;98510.00;;;13.30
65569;BMP180;52211;50.154;8.682;2022-09-29T03:15:16;98511.00;;;13.40
65569;BMP180;52211;50.154;8.682;2022-09-29T03:17:46;98511.00;;;13.40
65569;BMP180;52211;50.154;8.682;2022-09-29T03:20:12;98511.00;;;13.30
65569;BMP180;52211;50.154;8.682;2022-09-29T03:22:39;98507.00;;;13.30
65569;BMP180;52211;50.154;8.682;2022-09-29T03:25:06;98510.00;;;13.30
65569;BMP180;52211;50.154;8.682;2022-09-29T03:27:35;98512.00;;;13.30
65569;BMP180;52211;50.154;8.682;2022-09-29T03:30:10;98503.00;;;13.30
65569;BMP180;52211;50.154;8.682;2022-09-29T03:32:37;98506.00;;;13.30
65569;BMP180;52211;50.154;8.682;2022-09-29T03:35:05;98508.00;;;13.30
65569;BMP180;52211;50.154;8.682;2022-09-29T03:37:32;98508.00;;;13.30
65569;BMP180;52211;50.154;8.682;2022-09-29T03:39:59;98507.00;;;13.30
65569;BMP180;52211;50.154;8.682;2022-09-29T03:42:28;98503.00;;;13.30
65569;BMP180;52211;50.154;8.682;2022-09-29T03:44:55;98507.00;;;13.30
65569;BMP180;52211;50.154;8.682;2022-09-29T03:47:24;98505.00;;;13.20
65569;BMP180;52211;50.154;8.682;2022-09-29T03:49:55;98514.00;;;13.30
65569;BMP180;52211;50.154;8.682;2022-09-29T03:52:25;98509.00;;;13.30
65569;BMP180;52211;50.154;8.682;2022-09-29T03:54:54;98515.00;;;13.30
65569;BMP180;52211;50.154;8.682;2022-09-29T03:57:21;98521.00;;;13.30
65569;BMP180;52211;50.154;8.682;2022-09-29T03:59:50;98525.00;;;13.30
65569;BMP180;52211;50.154;8.682;2022-09-29T04:02:21;98519.00;;;13.20
65569;BMP180;52211;50.154;8.682;2022-09-29T04:04:48;98521.00;;;13.30
65569;BMP180;52211;50.154;8.682;2022-09-29T04:07:19;98520.00;;;13.30
65569;BMP180;52211;50.154;8.682;2022-09-29T04:09:48;98519.00;;;13.30
65569;BMP180;52211;50.154;8.682;2022-09-29T04:12:15;98525.00;;;13.30
65569;BMP180;52211;50.154;8.682;2022-09-29T04:14:44;98525.00;;;13.30
65569;BMP180;52211;50.154;8.682;2022-09-29T04:17:10;98529.00;;;13.30
65569;BMP180;52211;50.154;8.682;2022-09-29T04:19:39;98526.00;;;13.30
65569;BMP180;52211;50.154;8.682;2022-09-29T04:22:09;98528.00;;;13.40
65569;BMP180;52211;50.154;8.682;2022-09-29T04:24:42;98516.00;;;13.40
65569;BMP180;52211;50.154;8.682;2022-09-29T04:27:11;98529.00;;;13.40
65569;BMP180;52211;50.154;8.682;2022-09-29T04:29:42;98526.00;;;13.40
65569;BMP180;52211;50.154;8.682;2022-09-29T04:32:12;98539.00;;;13.40
65569;BMP180;52211;50.154;8.682;2022-09-29T04:34:41;98529.00;;;13.40
65569;BMP180;52211;50.154;8.682;2022-09-29T04:37:15;98540.00;;;13.40
65569;BMP180;52211;50.154;8.682;2022-09-29T04:39:44;98538.00;;;13.50
65569;BMP180;52211;50.154;8.682;2022-09-29T04:42:14;98546.00;;;13.50
65569;BMP180;52211;50.154;8.682;2022-09-29T04:44:45;98549.00;;;13.50
65569;BMP180;52211;50.154;8.682;2022-09-29T04:47:15;98544.00;;;13.50
65569;BMP180;52211;50.154;8.682;2022-09-29T04:49:42;98541.00;;;13.60
65569;BMP180;52211;50.154;8.682;2022-09-29T04:52:12;98543.00;;;13.60
65569;BMP180;52211;50.154;8.682;2022-09-29T04:54:39;98540.00;;;13.60
65569;BMP180;52211;50.154;8.682;2022-09-29T04:57:06;98542.00;;;13.60
65569;BMP180;52211;50.154;8.682;2022-09-29T04:59:35;98538.00;;;13.60
65569;BMP180;52211;50.154;8.682;2022-09-29T05:02:07;98537.00;;;13.60
65569;BMP180;52211;50.154;8.682;2022-09-29T05:04:36;98536.00;;;13.60
65569;BMP180;52211;50.154;8.682;2022-09-29T05:07:05;98543.00;;;13.70
65569;BMP180;52211;50.154;8.682;2022-09-29T05:09:34;98539.00;;;13.70
65569;BMP180;52211;50.154;8.682;2022-09-29T05:12:06;98552.00;;;13.70
65569;BMP180;52211;50.154;8.682;2022-09-29T05:14:35;98554.00;;;13.70
65569;BMP180;52211;50.154;8.682;2022-09-29T05:17:06;98549.00;;;13.80
65569;BMP180;52211;50.154;8.682;2022-09-29T05:19:33;98551.00;;;13.80
65569;BMP180;52211;50.154;8.682;2022-09-29T05:22:01;98554.00;;;13.80
65569;BMP180;52211;50.154;8.682;2022-09-29T05:24:30;98553.00;;;13.80
65569;BMP180;52211;50.154;8.682;2022-09-29T05:26:59;98554.00;;;13.80
65569;BMP180;52211;50.154;8.682;2022-09-29T05:29:28;98557.00;;;13.80
65569;BMP180;52211;50.154;8.682;2022-09-29T05:32:00;98553.00;;;13.90
65569;BMP180;52211;50.154;8.682;2022-09-29T05:34:27;98545.00;;;13.90
65569;BMP180;52211;50.154;8.682;2022-09-29T05:36:56;98556.00;;;13.90
65569;BMP180;52211;50.154;8.682;2022-09-29T05:39:25;98559.00;;;14.00
65569;BMP180;52211;50.154;8.682;2022-09-29T05:41:51;98552.00;;;14.00
65569;BMP180;52211;50.154;8.682;2022-09-29T05:44:27;98556.00;;;14.00
65569;BMP180;52211;50.154;8.682;2022-09-29T05:46:56;98556.00;;;14.10
65569;BMP180;52211;50.154;8.682;2022-09-29T05:49:27;98555.00;;;14.10
65569;BMP180;52211;50.154;8.682;2022-09-29T05:51:58;98556.00;;;14.10
65569;BMP180;52211;50.154;8.682;2022-09-29T05:54:30;98561.00;;;14.20
65569;BMP180;52211;50.154;8.682;2022-09-29T05:56:57;98561.00;;;14.20
65569;BMP180;52211;50.154;8.682;2022-09-29T05:59:25;98570.00;;;14.30
65569;BMP180;52211;50.154;8.682;2022-09-29T06:01:52;98571.00;;;14.30
65569;BMP180;52211;50.154;8.682;2022-09-29T06:04:21;98577.00;;;14.30
65569;BMP180;52211;50.154;8.682;2022-09-29T06:06:48;98577.00;;;14.40
65569;BMP180;52211;50.154;8.682;2022-09-29T06:09:15;98587.00;;;14.40
65569;BMP180;52211;50.154;8.682;2022-09-29T06:11:44;98571.00;;;14.40
65569;BMP180;52211;50.154;8.682;2022-09-29T06:14:11;98579.00;;;14.50
65569;BMP180;52211;50.154;8.682;2022-09-29T06:16:40;98578.00;;;14.50
65569;BMP180;52211;50.154;8.682;2022-09-29T06:19:14;98577.00;;;14.50
65569;BMP180;52211;50.154;8.682;2022-09-29T06:21:41;98580.00;;;14.50
65569;BMP180;52211;50.154;8.682;2022-09-29T06:24:08;98578.00;;;14.60
65569;BMP180;52211;50.154;8.682;2022-09-29T06:26:37;98571.00;;;14.60
65569;BMP180;52211;50.154;8.682;2022-09-29T06:29:04;98571.00;;;14.60
65569;BMP180;52211;50.154;8.682;2022-09-29T06:31:31;98578.00;;;14.60
65569;BMP180;52211;50.154;8.682;2022-09-29T06:34:04;98586.00;;;14.70
65569;BMP180;52211;50.154;8.682;2022-09-29T06:36:41;98589.00;;;14.70
65569;BMP180;52211;50.154;8.682;2022-09-29T06:39:27;98588.00;;;14.80
65569;BMP180;52211;50.154;8.682;2022-09-29T06:41:57;98586.00;;;14.80
65569;BMP180;52211;50.154;8.682;2022-09-29T06:44:27;98590.00;;;14.80
65569;BMP180;52211;50.154;8.682;2022-09-29T06:46:57;98597.00;;;14.80
65569;BMP180;52211;50.154;8.682;2022-09-29T06:49:24;98591.00;;;14.80
65569;BMP180;52211;50.154;8.682;2022-09-29T06:51:51;98588.00;;;14.80
65569;BMP180;52211;50.154;8.682;2022-09-29T06:54:22;98592.00;;;14.80
65569;BMP180;52211;50.154;8.682;2022-09-29T06:56:53;98602.00;;;14.80
65569;BMP180;52211;50.154;8.682;2022-09-29T06:59:22;98603.00;;;14.80
65569;BMP180;52211;50.154;8.682;2022-09-29T07:01:49;98598.00;;;14.80
65569;BMP180;52211;50.154;8.682;2022-09-29T07:04:19;98599.00;;;14.80
65569;BMP180;52211;50.154;8.682;2022-09-29T07:06:49;98603.00;;;14.90
65569;BMP180;52211;50.154;8.682;2022-09-29T07:09:16;98611.00;;;14.90
65569;BMP180;52211;50.154;8.682;2022-09-29T07:11:49;98607.00;;;15.00
65569;BMP180;52211;50.154;8.682;2022-09-29T07:14:19;98609.00;;;15.00
65569;BMP180;52211;50.154;8.682;2022-09-29T07:16:53;98613.00;;;15.10
65569;BMP180;52211;50.154;8.682;2022-09-29T07:19:20;98611.00;;;15.10
65569;BMP180;52211;50.154;8.682;2022-09-29T07:21:52;98611.00;;;15.20
65569;BMP180;52211;50.154;8.682;2022-09-29T07:24:21;98613.00;;;15.20
65569;BMP180;52211;50.154;8.682;2022-09-29T07:26:54;98604.00;;;15.20
65569;BMP180;52211;50.154;8.682;2022-09-29T07:29:25;98601.00;;;15.30
65569;BMP180;52211;50.154;8.682;2022-09-29T07:31:52;98602.00;;;15.30
65569;BMP180;52211;50.154;8.682;2022-09-29T07:34:23;98608.00;;;15.40
65569;BMP180;52211;50.154;8.682;2022-09-29T07:36:52;98607.00;;;15.40
65569;BMP180;52211;50.154;8.682;2022-09-29T07:39:23;98611.00;;;15.40
65569;BMP180;52211;50.154;8.682;2022-09-29T07:41:55;98608.00;;;15.50
65569;BMP180;52211;50.154;8.682;2022-09-29T07:44:23;98622.00;;;15.50
65569;BMP180;52211;50.154;8.682;2022-09-29T07:46:52;98618.00;;;15.60
65569;BMP180;52211;50.154;8.682;2022-09-29T07:49:23;98620.00;;;15.60
65569;BMP180;52211;50.154;8.682;2022-09-29T07:51:52;98622.00;;;15.60
65569;BMP180;52211;50.154;8.682;2022-09-29T07:54:22;98627.00;;;15.70
65569;BMP180;52211;50.154;8.682;2022-09-29T07:56:55;98631.00;;;15.70
65569;BMP180;52211;50.154;8.682;2022-09-29T07:59:21;98634.00;;;15.80
65569;BMP180;52211;50.154;8.682;2022-09-29T08:01:53;98638.00;;;15.80
65569;BMP180;52211;50.154;8.682;2022-09-29T08:04:24;98645.00;;;15.70
65569;BMP180;52211;50.154;8.682;2022-09-29T08:06:51;98630.00;;;15.70
65569;BMP180;52211;50.154;8.682;2022-09-29T08:09:23;98643.00;;;15.70
65569;BMP180;52211;50.154;8.682;2022-09-29T08:12:06;98640.00;;;15.60
65569;BMP180;52211;50.154;8.682;2022-09-29T08:14:35;98646.00;;;15.60
65569;BMP180;52211;50.154;8.682;2022-09-29T08:17:09;98651.00;;;15.60
65569;BMP180;52211;50.154;8.682;2022-09-29T08:19:36;98645.00;;;15.60
65569;BMP180;52211;50.154;8.682;2022-09-29T08:22:05;98648.00;;;15.70
65569;BMP180;52211;50.154;8.682;2022-09-29T08:24:32;98648.00;;;15.70
65569;BMP180;52211;50.154;8.682;2022-09-29T08:27:05;98655.00;;;15.80
65569;BMP180;52211;50.154;8.682;2022-09-29T08:29:44;98654.00;;;15.90
65569;BMP180;52211;50.154;8.682;2022-09-29T08:32:13;98657.00;;;15.90
65569;BMP180;52211;50.154;8.682;2022-09-29T08:34:40;98664.00;;;15.90
65569;BMP180;52211;50.154;8.682;2022-09-29T08:37:07;98668.00;;;15.90
65569;BMP180;52211;50.154;8.682;2022-09-29T08:39:36;98666.00;;;15.90
65569;BMP180;52211;50.154;8.682;2022-09-29T08:42:31;98664.00;;;15.90
65569;BMP180;52211;50.154;8.682;2022-09-29T08:45:26;98672.00;;;15.90
65569;BMP180;52211;50.154;8.682;2022-09-29T08:48:10;98674.00;;;16.00
65569;BMP180;52211;50.154;8.682;2022-09-29T08:50:58;98674.00;;;16.00
65569;BMP180;52211;50.154;8.682;2022-09-29T08:53:32;98672.00;;;16.10
65569;BMP180;52211;50.154;8.682;2022-09-29T08:56:08;98675.00;;;16.10
65569;BMP180;52211;50.154;8.682;2022-09-29T08:58:41;98676.00;;;16.20
65569;BMP180;52211;50.154;8.682;2022-09-29T09:01:34;98685.00;;;16.20
65569;BMP180;52211;50.154;8.682;2022-09-29T09:07:05;98687.00;;;16.30
65569;BMP180;52211;50.154;8.682;2022-09-29T09:13:04;98684.00;;;16.50
65569;BMP180;52211;50.154;8.682;2022-09-29T09:16:03;98695.00;;;16.60
65569;BMP180;52211;50.154;8.682;2022-09-29T09:25:06;98690.00;;;17.00
65569;BMP180;52211;50.154;8.682;2022-09-29T09:27:47;98687.00;;;17.10
65569;BMP180;52211;50.154;8.682;2022-09-29T09:30:26;98686.00;;;17.20
65569;BMP180;52211;50.154;8.682;2022-09-29T09:33:03;98691.00;;;17.30
65569;BMP180;52211;50.154;8.682;2022-09-29T09:35:46;98692.00;;;17.30
65569;BMP180;52211;50.154;8.682;2022-09-29T09:41:20;98688.00;;;17.50
65569;BMP180;52211;50.154;8.682;2022-09-29T09:44:32;98693.00;;;17.60
65569;BMP180;52211;50.154;8.682;2022-09-29T09:46:59;98695.00;;;17.70
65569;BMP180;52211;50.154;8.682;2022-09-29T09:49:41;98688.00;;;17.80
65569;BMP180;52211;50.154;8.682;2022-09-29T09:52:17;98693.00;;;17.80
65569;BMP180;52211;50.154;8.682;2022-09-29T09:55:04;98692.00;;;17.90
65569;BMP180;52211;50.154;8.682;2022-09-29T10:00:41;98692.00;;;18.00
65569;BMP180;52211;50.154;8.682;2022-09-29T10:03:11;98688.00;;;18.10
65569;BMP180;52211;50.154;8.682;2022-09-29T10:05:44;98685.00;;;18.20
65569;BMP180;52211;50.154;8.682;2022-09-29T10:08:27;98692.00;;;18.30
65569;BMP180;52211;50.154;8.682;2022-09-29T10:10:58;98701.00;;;18.40
65569;BMP180;52211;50.154;8.682;2022-09-29T10:13:30;98691.00;;;18.50
65569;BMP180;52211;50.154;8.682;2022-09-29T10:16:13;98692.00;;;18.60
65569;BMP180;52211;50.154;8.682;2022-09-29T10:18:48;98693.00;;;18.70
65569;BMP180;52211;50.154;8.682;2022-09-29T10:21:37;98700.00;;;18.70
65569;BMP180;52211;50.154;8.682;2022-09-29T10:24:20;98705.00;;;18.70
65569;BMP180;52211;50.154;8.682;2022-09-29T10:26:53;98710.00;;;18.80
65569;BMP180;52211;50.154;8.682;2022-09-29T10:29:40;98706.00;;;18.80
65569;BMP180;52211;50.154;8.682;2022-09-29T10:32:28;98705.00;;;18.90
65569;BMP180;52211;50.154;8.682;2022-09-29T10:35:21;98713.00;;;18.90
65569;BMP180;52211;50.154;8.682;2022-09-29T10:38:01;98714.00;;;19.00
65569;BMP180;52211;50.154;8.682;2022-09-29T10:40:31;98713.00;;;19.10
65569;BMP180;52211;50.154;8.682;2022-09-29T10:43:19;98715.00;;;19.10
65569;BMP180;52211;50.154;8.682;2022-09-29T10:45:51;98712.00;;;19.10
65569;BMP180;52211;50.154;8.682;2022-09-29T10:48:28;98714.00;;;19.20
65569;BMP180;52211;50.154;8.682;2022-09-29T10:51:03;98716.00;;;19.20
65569;BMP180;52211;50.154;8.682;2022-09-29T10:53:40;98710.00;;;19.30
65569;BMP180;52211;50.154;8.682;2022-09-29T10:56:22;98712.00;;;19.50
65569;BMP180;52211;50.154;8.682;2022-09-29T10:58:58;98716.00;;;19.60
65569;BMP180;52211;50.154;8.682;2022-09-29T11:01:49;98714.00;;;19.60
65569;BMP180;52211;50.154;8.682;2022-09-29T11:04:34;98715.00;;;19.70
65569;BMP180;52211;50.154;8.682;2022-09-29T11:07:11;98708.00;;;19.80
65569;BMP180;52211;50.154;8.682;2022-09-29T11:09:41;98716.00;;;19.90
65569;BMP180;52211;50.154;8.682;2022-09-29T11:12:31;98714.00;;;20.00
65569;BMP180;52211;50.154;8.682;2022-09-29T11:15:00;98714.00;;;20.20
65569;BMP180;52211;50.154;8.682;2022-09-29T11:17:36;98711.00;;;20.30
65569;BMP180;52211;50.154;8.682;2022-09-29T11:20:12;98721.00;;;20.40
65569;BMP180;52211;50.154;8.682;2022-09-29T11:26:00;98717.00;;;20.70
65569;BMP180;52211;50.154;8.682;2022-09-29T11:42:44;98714.00;;;21.50
65569;BMP180;52211;50.154;8.682;2022-09-29T11:45:24;98719.00;;;21.70
65569;BMP180;52211;50.154;8.682;2022-09-29T11:51:37;98718.00;;;21.90
65569;BMP180;52211;50.154;8.682;2022-09-29T11:54:51;98716.00;;;22.00
65569;BMP180;52211;50.154;8.682;2022-09-29T12:04:27;98710.00;;;22.10
65569;BMP180;52211;50.154;8.682;2022-09-29T12:07:33;98712.00;;;22.10
65569;BMP180;52211;50.154;8.682;2022-09-29T12:13:01;98698.00;;;21.90
65569;BMP180;52211;50.154;8.682;2022-09-29T12:16:13;98703.00;;;21.90
65569;BMP180;52211;50.154;8.682;2022-09-29T12:21:32;98701.00;;;22.00
65569;BMP180;52211;50.154;8.682;2022-09-29T12:24:04;98701.00;;;22.10
65569;BMP180;52211;50.154;8.682;2022-09-29T12:26:33;98708.00;;;22.10
65569;BMP180;52211;50.154;8.682;2022-09-29T12:29:10;98703.00;;;22.20
65569;BMP180;52211;50.154;8.682;2022-09-29T12:31:48;98703.00;;;22.20
65569;BMP180;52211;50.154;8.682;2022-09-29T12:34:32;98709.00;;;22.30
65569;BMP180;52211;50.154;8.682;2022-09-29T12:37:14;98707.00;;;22.50
65569;BMP180;52211;50.154;8.682;2022-09-29T12:45:45;98702.00;;;22.70
65569;BMP180;52211;50.154;8.682;2022-09-29T12:48:34;98695.00;;;22.80
65569;BMP180;52211;50.154;8.682;2022-09-29T12:51:23;98699.00;;;22.90
65569;BMP180;52211;50.154;8.682;2022-09-29T12:54:22;98711.00;;;22.90
65569;BMP180;52211;50.154;8.682;2022-09-29T12:57:02;98697.00;;;22.90
65569;BMP180;52211;50.154;8.682;2022-09-29T12:59:43;98703.00;;;23.00
65569;BMP180;52211;50.154;8.682;2022-09-29T13:26:11;98713.00;;;23.00
65569;BMP180;52211;50.154;8.682;2022-09-29T13:28:49;98708.00;;;23.00
65569;BMP180;52211;50.154;8.682;2022-09-29T13:31:25;98711.00;;;22.90
65569;BMP180;52211;50.154;8.682;2022-09-29T13:34:01;98711.00;;;22.90
65569;BMP180;52211;50.154;8.682;2022-09-29T13:36:38;98714.00;;;22.80
65569;BMP180;52211;50.154;8.682;2022-09-29T13:39:19;98710.00;;;22.80
65569;BMP180;52211;50.154;8.682;2022-09-29T13:41:47;98713.00;;;22.80
65569;BMP180;52211;50.154;8.682;2022-09-29T13:46:46;98706.00;;;22.70
65569;BMP180;52211;50.154;8.682;2022-09-29T13:49:25;98712.00;;;22.70
65569;BMP180;52211;50.154;8.682;2022-09-29T13:54:49;98719.00;;;22.70
65569;BMP180;52211;50.154;8.682;2022-09-29T14:02:43;98718.00;;;23.00
65569;BMP180;52211;50.154;8.682;2022-09-29T14:10:40;98724.00;;;23.10
65569;BMP180;52211;50.154;8.682;2022-09-29T14:13:33;98728.00;;;23.20
65569;BMP180;52211;50.154;8.682;2022-09-29T14:16:24;98736.00;;;23.20
65569;BMP180;52211;50.154;8.682;2022-09-29T14:35:41;98737.00;;;22.80
65569;BMP180;52211;50.154;8.682;2022-09-29T14:43:51;98748.00;;;22.40
65569;BMP180;52211;50.154;8.682;2022-09-29T14:52:56;98745.00;;;22.00
65569;BMP180;52211;50.154;8.682;2022-09-29T14:56:01;98753.00;;;21.90
65569;BMP180;52211;50.154;8.682;2022-09-29T15:01:34;98753.00;;;21.90
65569;BMP180;52211;50.154;8.682;2022-09-29T15:04:15;98761.00;;;21.90
65569;BMP180;52211;50.154;8.682;2022-09-29T15:06:51;98766.00;;;21.90
65569;BMP180;52211;50.154;8.682;2022-09-29T15:09:22;98767.00;;;22.00
65569;BMP180;52211;50.154;8.682;2022-09-29T15:11:56;98772.00;;;22.00
65569;BMP180;52211;50.154;8.682;2022-09-29T15:14:32;98772.00;;;22.00
65569;BMP180;52211;50.154;8.682;2022-09-29T15:20:40;98775.00;;;22.00
65569;BMP180;52211;50.154;8.682;2022-09-29T15:26:04;98768.00;;;22.10
65569;BMP180;52211;50.154;8.682;2022-09-29T15:28:37;98769.00;;;22.10
65569;BMP180;52211;50.154;8.682;2022-09-29T15:31:15;98770.00;;;22.00
65569;BMP180;52211;50.154;8.682;2022-09-29T15:33:46;98764.00;;;22.00
65569;BMP180;52211;50.154;8.682;2022-09-29T15:36:34;98770.00;;;21.90
65569;BMP180;52211;50.154;8.682;2022-09-29T15:39:13;98771.00;;;21.90
65569;BMP180;52211;50.154;8.682;2022-09-29T15:42:19;98770.00;;;21.80
65569;BMP180;52211;50.154;8.682;2022-09-29T15:45:00;98771.00;;;21.80
65569;BMP180;52211;50.154;8.682;2022-09-29T15:47:38;98773.00;;;21.80
65569;BMP180;52211;50.154;8.682;2022-09-29T15:50:22;98780.00;;;21.70
65569;BMP180;52211;50.154;8.682;2022-09-29T15:52:50;98785.00;;;21.70
65569;BMP180;52211;50.154;8.682;2022-09-29T15:55:23;98794.00;;;21.70
65569;BMP180;52211;50.154;8.682;2022-09-29T15:57:51;98793.00;;;21.70
65569;BMP180;52211;50.154;8.682;2022-09-29T16:03:36;98804.00;;;21.60
65569;BMP180;52211;50.154;8.682;2022-09-29T16:06:28;98799.00;;;21.60
65569;BMP180;52211;50.154;8.682;2022-09-29T16:09:04;98804.00;;;21.70
65569;BMP180;52211;50.154;8.682;2022-09-29T16:11:36;98803.00;;;21.70
65569;BMP180;52211;50.154;8.682;2022-09-29T16:14:18;98809.00;;;21.60
65569;BMP180;52211;50.154;8.682;2022-09-29T16:16:50;98811.00;;;21.50
65569;BMP180;52211;50.154;8.682;2022-09-29T16:19:30;98823.00;;;21.50
65569;BMP180;52211;50.154;8.682;2022-09-29T16:22:07;98825.00;;;21.40
65569;BMP180;52211;50.154;8.682;2022-09-29T16:24:50;98825.00;;;21.30
65569;BMP180;52211;50.154;8.682;2022-09-29T16:27:52;98831.00;;;21.10
65569;BMP180;52211;50.154;8.682;2022-09-29T16:30:30;98833.00;;;21.00
65569;BMP180;52211;50.154;8.682;2022-09-29T16:33:21;98847.00;;;20.90
65569;BMP180;52211;50.154;8.682;2022-09-29T16:38:37;98846.00;;;20.70
65569;BMP180;52211;50.154;8.682;2022-09-29T16:41:37;98853.00;;;20.60
65569;BMP180;52211;50.154;8.682;2022-09-29T16:44:34;98847.00;;;20.50
65569;BMP180;52211;50.154;8.682;2022-09-29T16:50:00;98858.00;;;20.30
65569;BMP180;52211;50.154;8.682;2022-09-29T16:58:10;98859.00;;;20.00
65569;BMP180;52211;50.154;8.682;2022-09-29T17:00:41;98864.00;;;20.00
65569;BMP180;52211;50.154;8.682;2022-09-29T17:03:11;98862.00;;;19.90
65569;BMP180;52211;50.154;8.682;2022-09-29T17:05:43;98867.00;;;19.80
65569;BMP180;52211;50.154;8.682;2022-09-29T17:08:27;98867.00;;;19.70
65569;BMP180;52211;50.154;8.682;2022-09-29T17:10:56;98872.00;;;19.60
65569;BMP180;52211;50.154;8.682;2022-09-29T17:13:24;98873.00;;;19.50
65569;BMP180;52211;50.154;8.682;2022-09-29T17:15:59;98869.00;;;19.40
65569;BMP180;52211;50.154;8.682;2022-09-29T17:18:29;98864.00;;;19.40
65569;BMP180;52211;50.154;8.682;2022-09-29T17:20:58;98876.00;;;19.30
65569;BMP180;52211;50.154;8.682;2022-09-29T17:23:27;98886.00;;;19.20
65569;BMP180;52211;50.154;8.682;2022-09-29T17:25:58;98882.00;;;19.10
65569;BMP180;52211;50.154;8.682;2022-09-29T17:28:46;98889.00;;;19.00
65569;BMP180;52211;50.154;8.682;2022-09-29T17:31:13;98894.00;;;18.90
65569;BMP180;52211;50.154;8.682;2022-09-29T17:33:42;98893.00;;;18.80
65569;BMP180;52211;50.154;8.682;2022-09-29T17:36:15;98904.00;;;18.80
65569;BMP180;52211;50.154;8.682;2022-09-29T17:38:46;98905.00;;;18.70
65569;BMP180;52211;50.154;8.682;2022-09-29T17:41:14;98904.00;;;18.60
65569;BMP180;52211;50.154;8.682;2022-09-29T17:43:45;98905.00;;;18.50
65569;BMP180;52211;50.154;8.682;2022-09-29T17:46:15;98913.00;;;18.40
65569;BMP180;52211;50.154;8.682;2022-09-29T17:48:42;98914.00;;;18.30
65569;BMP180;52211;50.154;8.682;2022-09-29T17:51:16;98921.00;;;18.30
65569;BMP180;52211;50.154;8.682;2022-09-29T17:53:48;98918.00;;;18.20
65569;BMP180;52211;50.154;8.682;2022-09-29T17:56:29;98921.00;;;18.10
65569;BMP180;52211;50.154;8.682;2022-09-29T17:59:06;98924.00;;;18.00
65569;BMP180;52211;50.154;8.682;2022-09-29T18:01:36;98920.00;;;17.90
65569;BMP180;52211;50.154;8.682;2022-09-29T18:04:04;98927.00;;;17.90